createdAt,value
2022-11-24T00:00:03.938Z,99.99
2022-11-24T00:00:14.441Z,99.99
2022-11-24T00:00:24.942Z,99.99
2022-11-24T00:00:35.453Z,99.99
2022-11-24T00:00:45.959Z,99.99
2022-11-24T00:00:56.473Z,99.99
2022-11-24T00:01:06.969Z,99.99
2022-11-24T00:01:17.514Z,99.99
2022-11-24T00:01:27.999Z,99.99
2022-11-24T00:01:38.485Z,99.99
2022-11-24T00:01:49.042Z,99.99
2022-11-24T00:01:59.570Z,99.99
2022-11-24T00:02:10.168Z,99.99
2022-11-24T00:02:20.645Z,99.99
2022-11-24T00:02:31.191Z,99.99
2022-11-24T00:02:41.701Z,99.99
2022-11-24T00:02:52.200Z,99.99
2022-11-24T00:03:02.645Z,99.99
2022-11-24T00:03:13.219Z,99.99
2022-11-24T00:03:23.768Z,99.99
2022-11-24T00:03:34.147Z,99.99
2022-11-24T00:03:44.634Z,99.99
2022-11-24T00:03:55.079Z,99.99
2022-11-24T00:04:05.587Z,99.99
2022-11-24T00:04:16.101Z,99.99
2022-11-24T00:04:26.589Z,99.99
2022-11-24T00:04:37.110Z,99.99
2022-11-24T00:04:47.601Z,99.99
2022-11-24T00:04:58.111Z,99.99
2022-11-24T00:05:08.618Z,99.99
2022-11-24T00:05:19.126Z,99.99
2022-11-24T00:05:29.626Z,99.99
2022-11-24T00:05:40.138Z,99.99
2022-11-24T00:05:50.649Z,99.99
2022-11-24T00:06:01.157Z,99.99
2022-11-24T00:06:11.655Z,99.99
2022-11-24T00:06:22.179Z,99.99
2022-11-24T00:06:32.665Z,99.99
2022-11-24T00:06:43.210Z,99.99
2022-11-24T00:06:53.682Z,99.99
2022-11-24T00:07:04.222Z,99.99
2022-11-24T00:07:14.751Z,99.99
2022-11-24T00:07:25.245Z,99.99
2022-11-24T00:07:35.823Z,99.99
2022-11-24T00:07:46.319Z,99.99
2022-11-24T00:07:56.769Z,99.99
2022-11-24T00:08:07.243Z,99.99
2022-11-24T00:08:17.733Z,99.99
2022-11-24T00:08:28.243Z,99.99
2022-11-24T00:08:38.752Z,99.99
2022-11-24T00:08:49.258Z,99.99
2022-11-24T00:08:59.756Z,99.99
2022-11-24T00:09:10.267Z,99.99
2022-11-24T00:09:20.775Z,99.99
2022-11-24T00:09:31.288Z,99.99
2022-11-24T00:09:41.790Z,99.99
2022-11-24T00:09:52.300Z,99.99
2022-11-24T00:10:02.792Z,99.99
2022-11-24T00:10:13.309Z,99.99
2022-11-24T00:10:23.822Z,99.99
2022-11-24T00:10:34.326Z,99.99
2022-11-24T00:10:44.832Z,99.99
2022-11-24T00:10:55.336Z,99.99
2022-11-24T00:11:05.838Z,99.99
2022-11-24T00:11:16.392Z,99.99
2022-11-24T00:11:26.866Z,99.99
2022-11-24T00:11:37.370Z,99.99
2022-11-24T00:11:47.873Z,99.99
2022-11-24T00:11:58.384Z,99.99
2022-11-24T00:12:08.895Z,99.99
2022-11-24T00:12:19.393Z,99.99
2022-11-24T00:12:29.901Z,99.99
2022-11-24T00:12:40.403Z,99.99
2022-11-24T00:12:50.909Z,99.99
2022-11-24T00:13:01.417Z,99.99
2022-11-24T00:13:11.929Z,99.99
2022-11-24T00:13:22.433Z,99.99
2022-11-24T00:13:32.932Z,99.99
2022-11-24T00:13:43.442Z,99.99
2022-11-24T00:13:53.944Z,99.99
2022-11-24T00:14:04.454Z,99.99
2022-11-24T00:14:14.956Z,99.99
2022-11-24T00:14:25.473Z,99.99
2022-11-24T00:14:36.185Z,99.99
2022-11-24T00:14:46.492Z,99.99
2022-11-24T00:14:56.986Z,99.99
2022-11-24T00:15:07.494Z,99.99
2022-11-24T00:15:17.998Z,99.99
2022-11-24T00:15:28.515Z,99.99
2022-11-24T00:15:39.015Z,99.99
2022-11-24T00:15:49.516Z,99.99
2022-11-24T00:16:00.032Z,99.99
2022-11-24T00:16:10.575Z,99.99
2022-11-24T00:16:21.156Z,99.99
2022-11-24T00:16:31.625Z,99.99
2022-11-24T00:16:42.216Z,99.99
2022-11-24T00:16:52.590Z,99.99
2022-11-24T00:17:03.220Z,99.99
2022-11-24T00:17:13.581Z,99.99
2022-11-24T00:17:24.078Z,99.99
2022-11-24T00:17:34.579Z,99.99
2022-11-24T00:17:45.074Z,99.99
2022-11-24T00:17:55.579Z,99.99
2022-11-24T00:18:06.088Z,99.99
2022-11-24T00:18:16.595Z,99.99
2022-11-24T00:18:27.093Z,99.99
2022-11-24T00:18:37.597Z,99.99
2022-11-24T00:18:48.105Z,99.99
2022-11-24T00:18:58.616Z,99.99
2022-11-24T00:19:09.119Z,99.99
2022-11-24T00:19:20.025Z,99.99
2022-11-24T00:19:30.134Z,99.99
2022-11-24T00:19:40.632Z,99.99
2022-11-24T00:19:51.134Z,99.99
2022-11-24T00:20:01.640Z,99.99
2022-11-24T00:20:12.154Z,99.99
2022-11-24T00:20:22.660Z,99.99
2022-11-24T00:20:33.167Z,99.99
2022-11-24T00:20:43.675Z,99.99
2022-11-24T00:20:54.180Z,99.99
2022-11-24T00:21:04.690Z,99.99
2022-11-24T00:21:15.187Z,99.99
2022-11-24T00:21:25.727Z,99.99
2022-11-24T00:21:36.190Z,99.99
2022-11-24T00:21:46.710Z,99.99
2022-11-24T00:21:57.211Z,99.99
2022-11-24T00:22:07.736Z,99.99
2022-11-24T00:22:18.229Z,99.99
2022-11-24T00:22:28.724Z,99.99
2022-11-24T00:22:39.247Z,99.99
2022-11-24T00:22:49.736Z,99.99
2022-11-24T00:23:00.241Z,99.99
2022-11-24T00:23:18.306Z,99.99
2022-11-24T00:23:21.257Z,99.99
2022-11-24T00:23:31.764Z,99.99
2022-11-24T00:23:42.270Z,99.99
2022-11-24T00:23:52.772Z,99.99
2022-11-24T00:24:03.277Z,99.99
2022-11-24T00:24:13.812Z,99.99
2022-11-24T00:24:24.289Z,99.99
2022-11-24T00:24:35.129Z,99.99
2022-11-24T00:24:45.306Z,99.99
2022-11-24T00:24:55.810Z,99.99
2022-11-24T00:25:06.319Z,99.99
2022-11-24T00:25:16.826Z,99.99
2022-11-24T00:25:27.340Z,99.99
2022-11-24T00:25:37.842Z,99.99
2022-11-24T00:25:48.350Z,99.99
2022-11-24T00:25:58.860Z,99.99
2022-11-24T00:26:09.370Z,99.99
2022-11-24T00:26:19.875Z,99.99
2022-11-24T00:26:30.390Z,99.99
2022-11-24T00:26:40.894Z,99.99
2022-11-24T00:26:51.399Z,99.99
2022-11-24T00:27:01.934Z,99.99
2022-11-24T00:27:12.420Z,99.99
2022-11-24T00:27:22.928Z,99.99
2022-11-24T00:27:33.432Z,99.99
2022-11-24T00:27:43.945Z,99.99
2022-11-24T00:27:54.450Z,99.99
2022-11-24T00:28:04.959Z,99.99
2022-11-24T00:28:15.463Z,99.99
2022-11-24T00:28:25.971Z,99.99
2022-11-24T00:28:36.477Z,99.99
2022-11-24T00:28:46.981Z,99.99
2022-11-24T00:28:57.505Z,99.99
2022-11-24T00:29:08.043Z,99.99
2022-11-24T00:29:18.504Z,99.99
2022-11-24T00:29:29.012Z,99.99
2022-11-24T00:29:39.516Z,99.99
2022-11-24T00:29:50.021Z,99.99
2022-11-24T00:30:00.528Z,99.99
2022-11-24T00:30:11.036Z,99.99
2022-11-24T00:30:21.540Z,99.99
2022-11-24T00:30:32.132Z,99.99
2022-11-24T00:30:42.620Z,99.99
2022-11-24T00:30:53.171Z,99.99
2022-11-24T00:31:03.681Z,99.99
2022-11-24T00:31:17.181Z,99.99
2022-11-24T00:31:24.627Z,99.99
2022-11-24T00:31:35.231Z,99.99
2022-11-24T00:31:45.586Z,99.99
2022-11-24T00:31:56.114Z,99.99
2022-11-24T00:32:06.599Z,99.99
2022-11-24T00:32:17.103Z,99.99
2022-11-24T00:32:27.629Z,99.99
2022-11-24T00:32:38.117Z,99.99
2022-11-24T00:32:48.622Z,99.99
2022-11-24T00:32:59.131Z,99.99
2022-11-24T00:33:09.635Z,99.99
2022-11-24T00:33:20.139Z,99.99
2022-11-24T00:33:30.650Z,99.99
2022-11-24T00:33:41.153Z,99.99
2022-11-24T00:33:51.660Z,99.99
2022-11-24T00:34:02.169Z,99.99
2022-11-24T00:34:12.669Z,99.99
2022-11-24T00:34:23.177Z,99.99
2022-11-24T00:34:33.873Z,99.99
2022-11-24T00:34:44.184Z,99.99
2022-11-24T00:34:54.688Z,99.99
2022-11-24T00:35:05.195Z,99.99
2022-11-24T00:35:15.700Z,99.99
2022-11-24T00:35:26.207Z,99.99
2022-11-24T00:35:36.711Z,99.99
2022-11-24T00:35:47.235Z,99.99
2022-11-24T00:35:57.734Z,99.99
2022-11-24T00:36:08.230Z,99.99
2022-11-24T00:36:18.773Z,99.99
2022-11-24T00:36:29.245Z,99.99
2022-11-24T00:36:39.753Z,99.99
2022-11-24T00:36:50.257Z,99.99
2022-11-24T00:37:00.770Z,99.99
2022-11-24T00:37:11.293Z,99.99
2022-11-24T00:37:21.782Z,99.99
2022-11-24T09:39:28.787Z,99.99
2022-11-24T09:39:39.238Z,99.99
2022-11-24T09:39:49.754Z,99.99
2022-11-24T09:40:00.260Z,99.99
2022-11-24T09:40:10.771Z,99.99
2022-11-24T09:40:21.368Z,99.99
2022-11-24T09:40:31.795Z,99.99
2022-11-24T09:40:42.305Z,99.99
2022-11-24T09:40:52.815Z,99.99
2022-11-24T09:41:03.326Z,99.99
2022-11-24T09:41:13.855Z,99.99
2022-11-24T09:41:24.355Z,99.99
2022-11-24T09:41:34.876Z,99.99
2022-11-24T09:41:45.377Z,99.99
2022-11-24T09:41:55.880Z,99.99
2022-11-24T09:42:06.392Z,99.99
2022-11-24T09:42:16.902Z,99.99
2022-11-24T09:42:27.433Z,99.99
2022-11-24T09:42:37.931Z,99.99
2022-11-24T09:42:53.407Z,99.99
2022-11-24T09:42:59.937Z,99.99
2022-11-24T09:43:09.453Z,99.99
2022-11-24T09:43:19.955Z,99.99
2022-11-24T09:43:30.473Z,99.99
2022-11-24T09:43:40.973Z,99.99
2022-11-24T09:43:51.490Z,99.99
2022-11-24T09:44:01.996Z,99.99
2022-11-24T09:44:12.503Z,99.99
2022-11-24T09:44:23.017Z,99.99
2022-11-24T09:44:33.543Z,99.99
2022-11-24T09:44:44.030Z,99.99
2022-11-24T09:44:54.543Z,99.99
2022-11-24T09:45:05.050Z,99.99
2022-11-24T09:45:15.578Z,99.99
2022-11-24T09:45:48.897Z,99.99
2022-11-24T09:46:03.976Z,99.99
2022-11-24T09:46:05.432Z,99.99
2022-11-24T09:46:09.238Z,99.99
2022-11-24T09:46:18.715Z,99.99
2022-11-24T09:46:29.214Z,99.99
2022-11-24T09:46:39.694Z,99.99
2022-11-24T09:46:50.198Z,99.99
2022-11-24T09:47:00.763Z,99.99
2022-11-24T09:47:11.161Z,99.99
2022-11-24T09:47:21.667Z,99.99
2022-11-24T09:47:32.177Z,99.99
2022-11-24T09:47:42.690Z,99.99
2022-11-24T09:47:53.202Z,99.99
2022-11-24T09:48:03.706Z,99.99
2022-11-24T09:48:14.215Z,99.99
2022-11-24T09:48:24.728Z,99.99
2022-11-24T09:48:35.248Z,99.99
2022-11-24T09:48:45.745Z,99.99
2022-11-24T09:48:56.251Z,99.99
2022-11-24T09:49:06.761Z,99.99
2022-11-24T09:49:17.272Z,99.99
2022-11-24T09:49:27.784Z,99.99
2022-11-24T09:49:38.289Z,99.99
2022-11-24T09:49:51.513Z,99.99
2022-11-24T09:49:59.326Z,99.99
2022-11-24T09:50:09.843Z,99.99
2022-11-24T09:50:20.406Z,99.99
2022-11-24T09:50:30.840Z,99.99
2022-11-24T09:50:41.352Z,99.99
2022-11-24T09:50:51.856Z,99.99
2022-11-24T09:51:02.364Z,99.99
2022-11-24T09:51:12.873Z,99.99
2022-11-24T09:51:23.401Z,99.99
2022-11-24T09:51:33.928Z,99.99
2022-11-24T09:51:44.408Z,99.99
2022-11-24T09:51:54.936Z,99.99
2022-11-24T09:52:05.424Z,99.99
2022-11-24T09:52:15.935Z,99.99
2022-11-24T09:52:26.448Z,99.99
2022-11-24T09:52:36.970Z,99.99
2022-11-24T09:52:47.465Z,99.99
2022-11-24T09:52:57.990Z,99.99
2022-11-24T09:53:08.483Z,99.99
2022-11-24T09:53:18.988Z,99.99
2022-11-24T09:54:11.007Z,99.99
2022-11-24T09:54:21.088Z,99.99
2022-11-24T09:54:31.638Z,99.99
2022-11-24T09:54:42.131Z,99.99
2022-11-24T09:54:52.611Z,99.99
2022-11-24T09:55:03.127Z,99.99
2022-11-24T09:55:13.644Z,99.99
2022-11-24T09:55:24.139Z,99.99
2022-11-24T09:55:34.681Z,99.99
2022-11-24T09:55:45.236Z,99.99
2022-11-24T09:55:55.684Z,99.99
2022-11-24T09:56:06.227Z,99.99
2022-11-24T09:56:16.697Z,99.99
2022-11-24T09:56:27.218Z,99.99
2022-11-24T09:56:37.718Z,99.99
2022-11-24T09:56:48.228Z,99.99
2022-11-24T09:56:58.752Z,99.99
2022-11-24T09:57:09.275Z,99.99
2022-11-24T09:57:19.758Z,99.99
2022-11-24T09:57:34.280Z,99.99
2022-11-24T09:57:41.798Z,99.99
2022-11-24T09:57:51.297Z,99.99
2022-11-24T09:58:01.798Z,99.99
2022-11-24T09:58:12.301Z,99.99
2022-11-24T09:58:22.836Z,99.99
2022-11-24T09:58:33.445Z,99.99
2022-11-24T09:58:43.960Z,99.99
2022-11-24T09:58:54.356Z,99.99
2022-11-24T09:59:04.863Z,99.99
2022-11-24T09:59:15.368Z,99.99
2022-11-24T09:59:25.879Z,99.99
2022-11-24T09:59:36.966Z,99.99
2022-11-24T09:59:46.907Z,99.99
2022-11-24T09:59:57.407Z,99.99
2022-11-24T10:00:07.921Z,99.99
2022-11-24T10:00:18.467Z,99.99
2022-11-24T10:00:28.941Z,99.99
2022-11-24T10:00:39.443Z,99.99
2022-11-24T10:00:49.984Z,99.99
2022-11-24T10:01:00.561Z,99.99
2022-11-24T10:01:11.046Z,99.99
2022-11-24T10:01:21.571Z,99.99
2022-11-24T10:01:32.082Z,99.99
2022-11-24T10:01:42.607Z,99.99
2022-11-24T10:01:53.047Z,99.99
2022-11-24T10:02:03.606Z,99.99
2022-11-24T10:02:14.039Z,99.99
2022-11-24T10:02:24.543Z,99.99
2022-11-24T10:02:35.097Z,99.99
2022-11-24T10:02:45.561Z,99.99
2022-11-24T10:02:56.069Z,99.99
2022-11-24T10:03:06.600Z,99.99
2022-11-24T10:03:17.095Z,99.99
2022-11-24T10:03:27.601Z,99.99
2022-11-24T10:03:38.162Z,99.99
2022-11-24T10:03:48.624Z,99.99
2022-11-24T10:04:05.618Z,99.99
2022-11-24T10:04:10.647Z,99.99
2022-11-24T10:04:20.271Z,99.99
2022-11-24T10:04:30.878Z,99.99
2022-11-24T10:04:41.254Z,99.99
2022-11-24T10:04:51.747Z,99.99
2022-11-24T10:05:02.276Z,99.99
2022-11-24T10:05:12.759Z,99.99
2022-11-24T10:05:23.225Z,99.99
2022-11-24T10:05:33.733Z,99.99
2022-11-24T10:05:44.257Z,99.99
2022-11-24T10:05:54.751Z,99.99
2022-11-24T10:06:05.280Z,99.99
2022-11-24T10:06:15.819Z,99.99
2022-11-24T10:06:26.278Z,99.99
2022-11-24T10:06:36.796Z,99.99
2022-11-24T10:06:47.300Z,99.99
2022-11-24T10:07:05.335Z,99.99
2022-11-24T10:07:08.393Z,99.90
2022-11-24T10:07:18.888Z,99.79
2022-11-24T10:07:29.405Z,99.79
2022-11-24T10:07:39.921Z,99.84
2022-11-24T10:07:50.423Z,99.84
2022-11-24T10:08:00.930Z,99.95
2022-11-24T10:08:11.386Z,99.95
2022-11-24T10:08:21.897Z,99.99
2022-11-24T10:08:32.402Z,99.99
2022-11-24T10:08:42.938Z,99.99
2022-11-24T10:08:53.445Z,99.99
2022-11-24T10:09:03.941Z,99.99
2022-11-24T10:09:14.466Z,99.99
2022-11-24T10:09:24.958Z,99.84
2022-11-24T10:09:35.845Z,99.84
2022-11-24T10:09:45.978Z,99.84
2022-11-24T10:09:56.497Z,99.95
2022-11-24T10:10:06.998Z,99.99
2022-11-24T10:10:24.240Z,99.99
2022-11-24T10:10:29.020Z,99.99
2022-11-24T10:10:38.525Z,99.99
2022-11-24T10:10:49.036Z,99.99
2022-11-24T10:10:59.575Z,99.99
2022-11-24T10:11:10.050Z,99.99
2022-11-24T10:11:20.562Z,99.99
2022-11-24T10:11:31.072Z,99.99
2022-11-24T10:11:41.588Z,99.99
2022-11-24T10:11:52.097Z,99.99
2022-11-24T10:12:02.614Z,99.90
2022-11-24T10:12:13.116Z,99.49
2022-11-24T10:12:23.636Z,99.12
2022-11-24T10:12:34.162Z,98.82
2022-11-24T10:12:44.656Z,98.51
2022-11-24T10:12:55.171Z,98.41
2022-11-24T10:13:05.676Z,98.36
2022-11-24T10:13:16.187Z,98.36
2022-11-24T10:13:26.699Z,98.46
2022-11-24T10:13:37.242Z,98.57
2022-11-24T10:13:47.723Z,98.67
2022-11-24T10:13:58.229Z,98.77
2022-11-24T10:14:08.745Z,98.87
2022-11-24T10:14:19.251Z,98.87
2022-11-24T10:14:29.769Z,98.97
2022-11-24T10:14:40.307Z,99.03
2022-11-24T10:14:50.791Z,99.13
2022-11-24T10:15:01.302Z,99.24
2022-11-24T10:15:11.811Z,99.13
2022-11-24T10:15:22.326Z,99.03
2022-11-24T10:15:32.885Z,99.03
2022-11-24T10:15:43.411Z,98.99
2022-11-24T10:15:53.956Z,99.09
2022-11-24T10:16:04.454Z,99.19
2022-11-24T10:16:14.979Z,99.19
2022-11-24T10:16:25.458Z,99.09
2022-11-24T10:16:35.899Z,98.99
2022-11-24T10:16:46.401Z,98.94
2022-11-24T10:16:56.914Z,98.74
2022-11-24T10:17:07.419Z,98.74
2022-11-24T10:17:17.930Z,98.53
2022-11-24T10:17:28.441Z,98.43
2022-11-24T10:17:38.951Z,98.18
2022-11-24T10:17:49.456Z,98.07
2022-11-24T10:17:59.973Z,98.07
2022-11-24T10:18:16.133Z,98.13
2022-11-24T10:18:21.996Z,97.52
2022-11-24T10:18:31.504Z,96.74
2022-11-24T10:18:42.015Z,96.39
2022-11-24T10:18:52.531Z,96.19
2022-11-24T10:19:03.037Z,96.19
2022-11-24T10:19:13.555Z,96.14
2022-11-24T10:19:30.462Z,95.84
2022-11-24T10:19:37.469Z,95.22
2022-11-24T10:19:45.084Z,94.81
2022-11-24T10:19:55.592Z,94.60
2022-11-24T10:20:06.104Z,93.89
2022-11-24T10:20:16.613Z,93.33
2022-11-24T10:20:27.178Z,92.83
2022-11-24T10:20:37.633Z,92.72
2022-11-24T10:20:48.145Z,92.72
2022-11-24T10:20:58.654Z,92.83
2022-11-24T10:21:09.169Z,92.93
2022-11-24T10:21:19.674Z,92.62
2022-11-24T10:21:30.191Z,91.91
2022-11-24T10:21:40.699Z,91.70
2022-11-24T10:21:51.210Z,91.70
2022-11-24T10:22:01.723Z,91.80
2022-11-24T10:22:12.235Z,91.35
2022-11-24T10:22:22.745Z,90.74
2022-11-24T10:22:33.260Z,90.43
2022-11-24T10:22:43.775Z,90.33
2022-11-24T10:22:54.277Z,90.02
2022-11-24T10:23:04.782Z,89.15
2022-11-24T10:23:15.296Z,89.25
2022-11-24T10:23:25.807Z,89.45
2022-11-24T10:23:39.748Z,89.72
2022-11-24T10:23:46.835Z,90.12
2022-11-24T10:23:57.334Z,90.53
2022-11-24T10:24:07.844Z,90.84
2022-11-24T10:24:18.438Z,90.70
2022-11-24T10:24:28.871Z,90.59
2022-11-24T10:24:39.396Z,90.39
2022-11-24T10:24:49.887Z,90.39
2022-11-24T10:25:00.403Z,90.08
2022-11-24T10:25:10.903Z,89.98
2022-11-24T10:25:21.415Z,89.17
2022-11-24T10:25:31.949Z,88.65
2022-11-24T10:25:42.435Z,88.24
2022-11-24T10:25:52.946Z,88.35
2022-11-24T10:26:03.458Z,88.85
2022-11-24T10:26:13.967Z,89.17
2022-11-24T10:26:24.486Z,89.26
2022-11-24T10:26:34.993Z,89.53
2022-11-24T10:26:45.505Z,89.73
2022-11-24T10:26:56.012Z,89.43
2022-11-24T10:27:06.529Z,89.32
2022-11-24T10:27:17.033Z,89.23
2022-11-24T10:27:27.545Z,88.51
2022-11-24T10:27:38.059Z,88.20
2022-11-24T10:27:48.584Z,88.31
2022-11-24T10:27:59.075Z,88.51
2022-11-24T10:28:09.585Z,88.78
2022-11-24T10:28:20.116Z,89.08
2022-11-24T10:28:30.616Z,89.18
2022-11-24T10:28:41.117Z,88.61
2022-11-24T10:28:51.630Z,88.31
2022-11-24T10:29:02.142Z,87.79
2022-11-24T10:29:12.653Z,87.12
2022-11-24T10:29:23.166Z,87.23
2022-11-24T10:29:33.932Z,87.63
2022-11-24T10:29:44.189Z,87.94
2022-11-24T10:29:54.707Z,87.94
2022-11-24T10:30:05.215Z,87.94
2022-11-24T10:30:15.724Z,88.24
2022-11-24T10:30:26.239Z,88.65
2022-11-24T10:30:36.821Z,88.76
2022-11-24T10:30:47.311Z,88.96
2022-11-24T10:30:57.860Z,89.17
2022-11-24T10:31:08.313Z,89.26
2022-11-24T10:31:18.991Z,89.47
2022-11-24T10:31:29.368Z,89.78
2022-11-24T10:31:39.820Z,89.84
2022-11-24T10:31:50.334Z,89.63
2022-11-24T10:32:00.863Z,89.32
2022-11-24T10:32:11.360Z,89.43
2022-11-24T10:32:21.912Z,89.43
2022-11-24T10:32:32.400Z,89.43
2022-11-24T10:32:42.895Z,89.12
2022-11-24T10:32:53.406Z,88.31
2022-11-24T10:33:04.842Z,87.90
2022-11-24T10:33:14.421Z,87.70
2022-11-24T10:33:30.374Z,87.70
2022-11-24T10:33:36.447Z,87.76
2022-11-24T10:33:45.952Z,87.85
2022-11-24T10:33:56.465Z,87.76
2022-11-24T10:34:06.974Z,87.65
2022-11-24T10:34:17.491Z,87.35
2022-11-24T10:34:28.001Z,86.94
2022-11-24T10:34:38.515Z,86.73
2022-11-24T10:34:49.025Z,86.33
2022-11-24T10:34:59.539Z,86.22
2022-11-24T10:35:10.051Z,86.02
2022-11-24T10:35:20.573Z,86.02
2022-11-24T10:35:31.068Z,85.92
2022-11-24T10:35:41.581Z,85.71
2022-11-24T10:35:52.095Z,86.12
2022-11-24T10:36:02.606Z,86.02
2022-11-24T10:36:13.117Z,86.33
2022-11-24T10:36:23.628Z,86.47
2022-11-24T10:36:34.138Z,86.36
2022-11-24T10:36:44.655Z,86.26
2022-11-24T10:36:55.162Z,86.57
2022-11-24T10:37:05.669Z,87.29
2022-11-24T10:37:16.184Z,87.70
2022-11-24T10:37:26.720Z,86.77
2022-11-24T10:37:37.210Z,85.28
2022-11-24T10:37:47.736Z,84.88
2022-11-24T10:37:58.223Z,85.22
2022-11-24T10:38:08.734Z,85.63
2022-11-24T10:38:19.245Z,86.35
2022-11-24T10:38:29.761Z,87.06
2022-11-24T10:38:40.265Z,87.57
2022-11-24T10:38:50.780Z,87.57
2022-11-24T10:39:01.288Z,87.20
2022-11-24T10:39:11.809Z,87.26
2022-11-24T10:39:22.312Z,87.67
2022-11-24T10:39:33.289Z,87.88
2022-11-24T10:39:43.354Z,87.88
2022-11-24T10:39:59.733Z,87.88
2022-11-24T10:40:05.358Z,88.08
2022-11-24T10:40:33.443Z,88.29
2022-11-24T10:40:55.439Z,88.45
2022-11-24T10:40:58.486Z,88.35
2022-11-24T10:41:02.720Z,88.55
2022-11-24T10:41:07.434Z,88.45
2022-11-24T10:41:17.946Z,89.06
2022-11-24T10:41:28.479Z,88.85
2022-11-24T10:41:38.972Z,88.24
2022-11-24T10:41:49.486Z,87.73
2022-11-24T10:42:00.030Z,87.73
2022-11-24T10:42:10.508Z,87.63
2022-11-24T10:42:21.026Z,86.30
2022-11-24T10:42:31.563Z,85.38
2022-11-24T10:42:42.060Z,85.73
2022-11-24T10:42:52.560Z,85.94
2022-11-24T10:43:03.071Z,86.55
2022-11-24T10:43:13.582Z,87.16
2022-11-24T10:43:24.093Z,87.37
2022-11-24T10:43:34.603Z,87.88
2022-11-24T10:43:45.118Z,88.18
2022-11-24T10:43:55.626Z,88.29
2022-11-24T10:44:06.137Z,88.49
2022-11-24T10:44:16.652Z,89.00
2022-11-24T10:44:27.182Z,89.31
2022-11-24T10:44:37.678Z,89.61
2022-11-24T10:44:48.182Z,89.61
2022-11-24T10:44:58.699Z,89.67
2022-11-24T10:45:09.240Z,89.88
2022-11-24T10:45:19.745Z,90.08
2022-11-24T10:45:30.232Z,90.08
2022-11-24T10:45:40.753Z,89.78
2022-11-24T10:45:51.307Z,89.26
2022-11-24T10:46:01.856Z,88.96
2022-11-24T10:46:12.311Z,89.00
2022-11-24T10:46:22.920Z,89.00
2022-11-24T10:46:39.026Z,89.31
2022-11-24T10:46:44.925Z,89.61
2022-11-24T10:46:54.395Z,89.82
2022-11-24T10:47:04.832Z,89.82
2022-11-24T10:47:15.357Z,89.82
2022-11-24T10:47:25.860Z,89.20
2022-11-24T10:47:36.418Z,88.49
2022-11-24T10:47:46.885Z,88.39
2022-11-24T10:47:57.394Z,88.49
2022-11-24T10:48:07.903Z,88.49
2022-11-24T10:48:18.417Z,88.70
2022-11-24T10:48:28.926Z,88.90
2022-11-24T10:48:39.437Z,89.17
2022-11-24T10:48:49.946Z,89.58
2022-11-24T10:49:00.459Z,89.78
2022-11-24T10:49:10.969Z,89.37
2022-11-24T10:49:21.481Z,89.06
2022-11-24T10:49:32.207Z,88.96
2022-11-24T10:49:42.502Z,88.96
2022-11-24T10:49:53.012Z,89.06
2022-11-24T10:50:03.532Z,89.32
2022-11-24T10:50:14.039Z,89.73
2022-11-24T10:50:24.565Z,89.94
2022-11-24T10:50:35.062Z,89.79
2022-11-24T10:50:45.573Z,89.28
2022-11-24T10:50:56.111Z,87.90
2022-11-24T10:51:06.597Z,87.08
2022-11-24T10:51:17.104Z,87.29
2022-11-24T10:51:27.617Z,87.55
2022-11-24T10:51:38.127Z,88.06
2022-11-24T10:51:48.634Z,88.57
2022-11-24T10:51:59.148Z,88.67
2022-11-24T10:52:09.655Z,88.67
2022-11-24T10:52:20.170Z,88.47
2022-11-24T10:52:30.682Z,88.17
2022-11-24T10:52:41.192Z,87.96
2022-11-24T10:52:51.703Z,87.76
2022-11-24T10:53:02.259Z,86.83
2022-11-24T10:53:12.732Z,85.92
2022-11-24T10:53:23.249Z,85.37
2022-11-24T10:53:33.759Z,84.69
2022-11-24T10:53:44.272Z,84.25
2022-11-24T10:53:54.815Z,84.59
2022-11-24T10:54:05.293Z,85.00
2022-11-24T10:54:15.805Z,85.21
2022-11-24T10:54:26.321Z,85.75
2022-11-24T10:54:36.837Z,85.96
2022-11-24T10:54:47.363Z,86.06
2022-11-24T10:54:57.859Z,86.57
2022-11-24T10:55:08.364Z,86.88
2022-11-24T10:55:21.547Z,86.16
2022-11-24T10:55:29.394Z,85.86
2022-11-24T10:55:39.898Z,85.55
2022-11-24T10:55:50.414Z,85.35
2022-11-24T10:56:00.924Z,84.94
2022-11-24T10:56:11.434Z,84.83
2022-11-24T10:56:21.952Z,85.14
2022-11-24T10:56:32.462Z,85.45
2022-11-24T10:56:42.975Z,85.55
2022-11-24T10:56:53.483Z,85.35
2022-11-24T10:57:03.998Z,85.65
2022-11-24T10:57:14.507Z,85.65
2022-11-24T10:57:25.018Z,85.96
2022-11-24T10:57:35.527Z,86.77
2022-11-24T10:57:46.040Z,86.88
2022-11-24T10:57:56.550Z,85.96
2022-11-24T10:58:07.061Z,85.28
2022-11-24T10:58:17.572Z,85.59
2022-11-24T10:58:31.564Z,85.89
2022-11-24T10:58:39.599Z,86.10
2022-11-24T10:58:49.105Z,85.89
2022-11-24T10:58:59.642Z,85.89
2022-11-24T10:59:10.130Z,86.41
2022-11-24T10:59:20.641Z,87.12
2022-11-24T10:59:31.146Z,87.73
2022-11-24T10:59:41.655Z,88.24
2022-11-24T10:59:52.169Z,88.45
2022-11-24T11:00:02.680Z,88.14
2022-11-24T11:00:13.191Z,87.94
2022-11-24T11:00:23.717Z,88.35
2022-11-24T11:00:34.231Z,88.45
2022-11-24T11:00:44.718Z,88.96
2022-11-24T11:00:55.228Z,89.26
2022-11-24T11:01:05.819Z,89.31
2022-11-24T11:01:16.287Z,89.72
2022-11-24T11:01:26.796Z,90.19
2022-11-24T11:01:37.330Z,90.70
2022-11-24T11:01:47.846Z,90.90
2022-11-24T11:01:58.364Z,91.00
2022-11-24T11:02:08.898Z,90.80
2022-11-24T11:02:19.362Z,90.80
2022-11-24T11:02:29.941Z,90.80
2022-11-24T11:02:40.387Z,90.49
2022-11-24T11:02:50.899Z,90.12
2022-11-24T11:03:01.434Z,89.92
2022-11-24T11:03:11.932Z,90.02
2022-11-24T11:03:22.383Z,90.12
2022-11-24T11:03:32.918Z,89.82
2022-11-24T11:03:43.407Z,89.45
2022-11-24T11:03:53.927Z,88.84
2022-11-24T11:04:04.429Z,88.74
2022-11-24T11:04:14.939Z,89.04
2022-11-24T11:04:25.451Z,89.39
2022-11-24T11:04:35.962Z,89.39
2022-11-24T11:04:46.482Z,89.50
2022-11-24T11:04:56.982Z,89.80
2022-11-24T11:05:07.493Z,90.21
2022-11-24T11:05:18.005Z,90.31
2022-11-24T11:05:28.517Z,90.36
2022-11-24T11:05:39.022Z,89.84
2022-11-24T11:05:49.534Z,89.53
2022-11-24T11:06:00.043Z,89.58
2022-11-24T11:06:10.559Z,89.78
2022-11-24T11:06:21.069Z,90.09
2022-11-24T11:06:31.617Z,89.98
2022-11-24T11:06:42.090Z,90.09
2022-11-24T11:06:52.601Z,90.34
2022-11-24T11:07:03.112Z,90.23
2022-11-24T11:07:13.662Z,90.13
2022-11-24T11:07:24.212Z,90.03
2022-11-24T11:07:34.719Z,90.03
2022-11-24T11:07:45.218Z,90.37
2022-11-24T11:07:59.649Z,90.58
2022-11-24T11:08:07.270Z,90.99
2022-11-24T11:08:16.693Z,91.30
2022-11-24T11:08:27.202Z,91.71
2022-11-24T11:08:37.710Z,91.65
2022-11-24T11:08:48.221Z,91.24
2022-11-24T11:08:58.730Z,91.24
2022-11-24T11:09:09.241Z,91.35
2022-11-24T11:09:19.753Z,91.35
2022-11-24T11:09:30.262Z,91.44
2022-11-24T11:09:40.776Z,91.65
2022-11-24T11:09:51.304Z,91.90
2022-11-24T11:10:01.805Z,92.00
2022-11-24T11:10:12.310Z,92.31
2022-11-24T11:10:22.821Z,92.51
2022-11-24T11:10:33.332Z,92.61
2022-11-24T11:10:43.848Z,92.82
2022-11-24T11:10:54.360Z,93.02
2022-11-24T11:11:04.875Z,93.44
2022-11-24T11:11:15.387Z,93.74
2022-11-24T11:11:25.897Z,93.74
2022-11-24T11:11:36.436Z,93.54
2022-11-24T11:11:46.927Z,93.33
2022-11-24T11:11:59.162Z,93.27
2022-11-24T11:12:28.038Z,93.27
2022-11-24T11:12:43.978Z,93.17
2022-11-24T11:12:44.879Z,93.27
2022-11-24T11:12:49.996Z,93.38
2022-11-24T11:13:00.507Z,93.27
2022-11-24T11:13:11.018Z,93.17
2022-11-24T11:13:21.530Z,92.97
2022-11-24T11:13:32.037Z,92.97
2022-11-24T11:13:42.546Z,92.97
2022-11-24T11:13:56.838Z,92.97
2022-11-24T11:14:05.005Z,92.97
2022-11-24T11:14:14.081Z,92.97
2022-11-24T11:14:24.589Z,93.07
2022-11-24T11:14:35.102Z,93.27
2022-11-24T11:14:45.610Z,93.48
2022-11-24T11:14:56.122Z,93.89
2022-11-24T11:15:06.633Z,94.10
2022-11-24T11:15:17.139Z,94.30
2022-11-24T11:15:27.749Z,94.51
2022-11-24T11:15:38.259Z,94.71
2022-11-24T11:15:48.742Z,94.81
2022-11-24T11:15:59.275Z,94.81
2022-11-24T11:16:09.753Z,94.51
2022-11-24T11:16:20.274Z,94.20
2022-11-24T11:16:30.810Z,94.20
2022-11-24T11:16:41.242Z,94.30
2022-11-24T11:16:51.751Z,94.20
2022-11-24T11:17:02.284Z,94.40
2022-11-24T11:17:12.777Z,93.99
2022-11-24T11:17:23.287Z,93.17
2022-11-24T11:17:33.804Z,92.97
2022-11-24T11:17:44.310Z,92.97
2022-11-24T11:17:54.825Z,93.27
2022-11-24T11:18:05.338Z,93.17
2022-11-24T11:18:15.850Z,92.76
2022-11-24T11:18:26.354Z,92.55